Time,TemperatureF,DewpointF,PressureIn,WindDirection,WindDirectionDegrees,WindSpeedMPH,WindSpeedGustMPH,Humidity,HourlyPrecipIn,Conditions,Clouds,dailyrainin,SoftwareType,DateUTC
2013-01-23 00:04:00,16.3,-0.3,29.18,SE,127,0.0,0.0,47,0.00,,OVC055,0.00,VWS V14.01,2013-01-23 06:04:00,
2013-01-23 00:09:00,16.5,-0.2,29.18,SE,127,0.0,0.0,47,0.00,,OVC055,0.00,VWS V14.01,2013-01-23 06:09:00,
2013-01-23 00:14:00,16.5,-0.2,29.18,SE,130,0.0,0.0,47,0.00,,OVC055,0.00,VWS V14.01,2013-01-23 06:14:00,
2013-01-23 00:19:00,16.5,-0.2,29.18,SE,140,0.0,0.0,47,0.00,,OVC055,0.00,VWS V14.01,2013-01-23 06:19:00,
2013-01-23 00:24:00,16.5,-0.2,29.18,SE,137,0.0,0.0,47,0.00,,OVC055,0.00,VWS V14.01,2013-01-23 06:24:00,
2013-01-23 00:29:00,16.5,-0.2,29.18,SE,136,0.0,0.0,47,0.00,,OVC055,0.00,VWS V14.01,2013-01-23 06:29:00,
2013-01-23 00:35:00,16.5,-0.2,29.18,SE,130,0.0,0.0,47,0.00,,OVC055,0.00,VWS V14.01,2013-01-23 06:35:00,
2013-01-23 00:40:00,16.5,-0.2,29.18,SE,124,0.0,3.1,47,0.00,,OVC055,0.00,VWS V14.01,2013-01-23 06:40:00,
2013-01-23 00:45:00,16.5,-0.2,29.18,SE,132,0.0,0.0,47,0.00,,OVC055,0.00,VWS V14.01,2013-01-23 06:45:00,
2013-01-23 00:50:00,16.3,-0.3,29.18,SE,135,0.0,0.0,47,0.00,,OVC055,0.00,VWS V14.01,2013-01-23 06:50:00,
2013-01-23 00:55:00,16.0,-0.7,29.18,SE,133,0.0,0.0,47,0.00,,OVC055,0.00,VWS V14.01,2013-01-23 06:55:00,
2013-01-23 01:00:00,16.0,-0.7,29.18,SE,132,0.0,0.0,47,0.00,,OVC055,0.00,VWS V14.01,2013-01-23 07:00:00,
2013-01-23 01:05:00,15.8,-0.4,29.18,SE,131,0.0,0.0,48,0.00,,OVC055,0.00,VWS V14.01,2013-01-23 07:05:00,
2013-01-23 01:10:00,15.6,-0.6,29.18,SE,132,0.0,0.0,48,0.00,,OVC055,0.00,VWS V14.01,2013-01-23 07:10:00,
2013-01-23 01:15:00,15.4,-0.7,29.15,SE,131,0.0,0.0,48,0.00,,OVC055,0.00,VWS V14.01,2013-01-23 07:15:00,
2013-01-23 01:20:00,15.6,-0.6,29.15,SE,131,0.0,0.0,48,0.00,,OVC055,0.00,VWS V14.01,2013-01-23 07:20:00,
2013-01-23 01:25:00,15.4,-0.7,29.15,SE,131,0.0,0.0,48,0.00,,OVC055,0.00,VWS V14.01,2013-01-23 07:25:00,
2013-01-23 01:30:00,15.4,-0.7,29.15,SE,131,0.0,0.0,48,0.00,,OVC055,0.00,VWS V14.01,2013-01-23 07:30:00,
2013-01-23 01:35:00,15.3,-0.9,29.15,SE,131,0.0,0.0,48,0.00,,OVC055,0.00,VWS V14.01,2013-01-23 07:35:00,
2013-01-23 01:40:00,15.3,-0.9,29.15,SE,131,0.0,0.0,48,0.00,,OVC055,0.00,VWS V14.01,2013-01-23 07:40:00,
2013-01-23 01:45:00,15.3,-0.9,29.15,SE,132,0.0,0.0,48,0.00,,OVC055,0.00,VWS V14.01,2013-01-23 07:45:00,
2013-01-23 01:50:00,15.3,-0.9,29.15,SE,131,0.0,0.0,48,0.00,,OVC055,0.00,VWS V14.01,2013-01-23 07:50:00,
2013-01-23 01:55:00,15.1,-1.1,29.15,SE,131,0.0,0.0,48,0.00,,OVC055,0.00,VWS V14.01,2013-01-23 07:55:00,
2013-01-23 02:01:00,14.9,-1.2,29.15,SE,131,0.0,0.0,48,0.00,,OVC050,0.00,VWS V14.01,2013-01-23 08:01:00,
2013-01-23 02:06:00,14.9,-1.2,29.15,SE,131,0.0,0.0,48,0.00,,OVC050,0.00,VWS V14.01,2013-01-23 08:06:00,
2013-01-23 02:11:00,14.7,-1.4,29.15,SE,131,0.0,0.0,48,0.00,,OVC050,0.00,VWS V14.01,2013-01-23 08:11:00,
2013-01-23 02:16:00,14.7,-1.4,29.15,SE,130,0.0,0.0,48,0.00,,OVC050,0.00,VWS V14.01,2013-01-23 08:16:00,
2013-01-23 02:21:00,14.5,-1.1,29.15,SE,130,0.0,0.0,49,0.00,,OVC050,0.00,VWS V14.01,2013-01-23 08:21:00,
2013-01-23 02:26:00,14.4,-1.3,29.15,SE,131,0.0,0.0,49,0.00,,OVC050,0.00,VWS V14.01,2013-01-23 08:26:00,
2013-01-23 02:31:00,14.4,-1.3,29.15,SE,130,0.0,0.0,49,0.00,,OVC050,0.00,VWS V14.01,2013-01-23 08:31:00,
2013-01-23 02:36:00,14.4,-1.3,29.15,SE,130,0.0,0.0,49,0.00,,OVC050,0.00,VWS V14.01,2013-01-23 08:36:00,
2013-01-23 02:41:00,14.2,-1.5,29.15,SE,130,0.0,0.0,49,0.00,,OVC050,0.00,VWS V14.01,2013-01-23 08:41:00,
2013-01-23 02:46:00,14.2,-1.5,29.15,SE,131,0.0,0.0,49,0.00,,OVC050,0.00,VWS V14.01,2013-01-23 08:46:00,
2013-01-23 02:51:00,14.2,-1.5,29.15,SE,131,0.0,0.0,49,0.00,,OVC050,0.00,VWS V14.01,2013-01-23 08:51:00,
2013-01-23 02:56:00,14.0,-1.6,29.15,SE,131,0.0,0.0,49,0.00,,OVC050,0.00,VWS V14.01,2013-01-23 08:56:00,
2013-01-23 03:01:00,14.0,-1.2,29.15,SE,131,0.0,0.0,50,0.00,,OVC050,0.00,VWS V14.01,2013-01-23 09:01:00,
2013-01-23 03:06:00,13.8,-1.4,29.15,SE,131,0.0,0.0,50,0.00,,OVC050,0.00,VWS V14.01,2013-01-23 09:06:00,
2013-01-23 03:11:00,13.6,-1.5,29.15,SE,130,0.0,0.0,50,0.00,,OVC050,0.00,VWS V14.01,2013-01-23 09:11:00,
2013-01-23 03:16:00,13.6,-1.5,29.15,SE,131,0.0,0.0,50,0.00,,OVC050,0.00,VWS V14.01,2013-01-23 09:16:00,
2013-01-23 03:21:00,13.6,-1.5,29.15,SE,131,0.0,0.0,50,0.00,,OVC050,0.00,VWS V14.01,2013-01-23 09:21:00,
2013-01-23 03:26:00,13.6,-1.5,29.15,SE,131,0.0,0.0,50,0.00,,OVC050,0.00,VWS V14.01,2013-01-23 09:26:00,
2013-01-23 03:31:00,13.5,-1.7,29.12,SE,130,0.0,0.0,50,0.00,,OVC050,0.00,VWS V14.01,2013-01-23 09:31:00,
2013-01-23 03:36:00,13.5,-1.7,29.12,SE,130,0.0,0.0,50,0.00,,OVC050,0.00,VWS V14.01,2013-01-23 09:36:00,
2013-01-23 03:41:00,13.5,-1.7,29.12,SE,130,0.0,0.0,50,0.00,,OVC050,0.00,VWS V14.01,2013-01-23 09:41:00,
2013-01-23 03:46:00,13.3,-1.9,29.12,SE,130,0.0,0.0,50,0.00,,OVC050,0.00,VWS V14.01,2013-01-23 09:46:00,
2013-01-23 03:52:00,13.3,-1.9,29.12,SE,131,0.0,0.0,50,0.00,,OVC050,0.00,VWS V14.01,2013-01-23 09:52:00,
2013-01-23 03:57:00,13.3,-1.9,29.12,SE,131,0.0,0.0,50,0.00,,OVC050,0.00,VWS V14.01,2013-01-23 09:57:00,
2013-01-23 04:02:00,13.1,-2.0,29.12,SE,131,0.0,0.0,50,0.00,,FEW120,0.00,VWS V14.01,2013-01-23 10:02:00,
2013-01-23 04:07:00,13.1,-2.0,29.12,SE,130,0.0,0.0,50,0.00,,FEW120,0.00,VWS V14.01,2013-01-23 10:07:00,
2013-01-23 04:12:00,13.1,-2.0,29.12,SE,130,0.0,0.0,50,0.00,,FEW120,0.00,VWS V14.01,2013-01-23 10:12:00,
2013-01-23 04:17:00,13.1,-2.0,29.12,SE,131,0.0,0.0,50,0.00,,FEW120,0.00,VWS V14.01,2013-01-23 10:17:00,
2013-01-23 04:22:00,12.9,-2.2,29.12,SE,131,0.0,0.0,50,0.00,,FEW120,0.00,VWS V14.01,2013-01-23 10:22:00,
2013-01-23 04:27:00,12.7,-2.4,29.12,SE,132,0.0,0.0,50,0.00,,FEW120,0.00,VWS V14.01,2013-01-23 10:27:00,
2013-01-23 04:32:00,12.9,-2.2,29.12,South,178,0.0,0.0,50,0.00,,FEW120,0.00,VWS V14.01,2013-01-23 10:32:00,
2013-01-23 04:37:00,12.9,-2.2,29.12,SSE,163,0.0,0.0,50,0.00,,FEW120,0.00,VWS V14.01,2013-01-23 10:37:00,
2013-01-23 04:42:00,12.9,-2.2,29.12,SSE,164,0.0,0.0,50,0.00,,FEW120,0.00,VWS V14.01,2013-01-23 10:42:00,
2013-01-23 04:47:00,12.9,-2.2,29.12,SSE,164,0.0,0.0,50,0.00,,FEW120,0.00,VWS V14.01,2013-01-23 10:47:00,
2013-01-23 04:52:00,12.9,-2.2,29.12,South,170,0.0,0.0,50,0.00,,FEW120,0.00,VWS V14.01,2013-01-23 10:52:00,
2013-01-23 04:58:00,12.9,-2.2,29.12,SSE,164,0.0,0.0,50,0.00,,FEW120,0.00,VWS V14.01,2013-01-23 10:58:00,
2013-01-23 05:03:00,13.3,-1.9,29.12,SSE,164,0.0,0.0,50,0.00,,FEW120,0.00,VWS V14.01,2013-01-23 11:03:00,
2013-01-23 05:08:00,13.3,-1.9,29.12,SSE,163,0.0,0.0,50,0.00,,FEW120,0.00,VWS V14.01,2013-01-23 11:08:00,
2013-01-23 05:13:00,13.3,-1.9,29.09,SSE,162,0.0,0.0,50,0.00,,FEW120,0.00,VWS V14.01,2013-01-23 11:13:00,
2013-01-23 05:18:00,13.1,-2.0,29.09,South,173,0.0,0.0,50,0.00,,FEW120,0.00,VWS V14.01,2013-01-23 11:18:00,
2013-01-23 05:23:00,12.9,-2.2,29.09,SSE,168,0.0,0.0,50,0.00,,FEW120,0.00,VWS V14.01,2013-01-23 11:23:00,
2013-01-23 05:28:00,12.9,-2.2,29.09,SSE,159,3.1,3.1,50,0.00,,FEW120,0.00,VWS V14.01,2013-01-23 11:28:00,
2013-01-23 05:33:00,13.3,-1.9,29.09,SSE,159,0.0,0.0,50,0.00,,FEW120,0.00,VWS V14.01,2013-01-23 11:33:00,
2013-01-23 05:38:00,13.3,-1.9,29.09,SSE,151,0.0,0.0,50,0.00,,FEW120,0.00,VWS V14.01,2013-01-23 11:38:00,
2013-01-23 05:43:00,13.6,-1.5,29.09,SSE,151,0.0,0.0,50,0.00,,FEW120,0.00,VWS V14.01,2013-01-23 11:43:00,
2013-01-23 05:48:00,13.6,-1.5,29.09,SE,136,0.0,0.0,50,0.00,,FEW120,0.00,VWS V14.01,2013-01-23 11:48:00,
2013-01-23 05:53:00,13.5,-1.7,29.09,SSE,147,0.0,0.0,50,0.00,,FEW120,0.00,VWS V14.01,2013-01-23 11:53:00,
2013-01-23 05:58:00,13.6,-1.5,29.06,SSE,154,0.0,0.0,50,0.00,,FEW120,0.00,VWS V14.01,2013-01-23 11:58:00,
2013-01-23 06:03:00,13.6,-1.5,29.06,SSE,156,0.0,3.6,50,0.00,,CLR,0.00,VWS V14.01,2013-01-23 12:03:00,
2013-01-23 06:08:00,13.6,-1.5,29.06,SSE,156,0.0,0.0,50,0.00,,CLR,0.00,VWS V14.01,2013-01-23 12:08:00,
2013-01-23 06:13:00,13.6,-1.5,29.09,SSE,151,0.0,0.0,50,0.00,,CLR,0.00,VWS V14.01,2013-01-23 12:13:00,
2013-01-23 06:18:00,13.5,-1.7,29.09,South,175,0.0,0.0,50,0.00,,CLR,0.00,VWS V14.01,2013-01-23 12:18:00,
2013-01-23 06:23:00,13.5,-1.7,29.09,South,188,0.0,2.7,50,0.00,,CLR,0.00,VWS V14.01,2013-01-23 12:23:00,
2013-01-23 06:28:00,13.6,-1.5,29.09,South,173,0.0,0.0,50,0.00,,CLR,0.00,VWS V14.01,2013-01-23 12:28:00,
2013-01-23 06:33:00,13.6,-1.5,29.09,South,179,0.0,0.0,50,0.00,,CLR,0.00,VWS V14.01,2013-01-23 12:33:00,
2013-01-23 06:38:00,13.5,-1.7,29.09,South,172,0.0,0.0,50,0.00,,CLR,0.00,VWS V14.01,2013-01-23 12:38:00,
2013-01-23 06:43:00,13.6,-1.5,29.09,SSE,160,0.0,3.1,50,0.00,,CLR,0.00,VWS V14.01,2013-01-23 12:43:00,
2013-01-23 06:48:00,13.5,-1.7,29.09,SSE,168,0.0,0.0,50,0.00,,CLR,0.00,VWS V14.01,2013-01-23 12:48:00,
2013-01-23 06:53:00,13.3,-1.9,29.09,SSE,167,0.0,0.0,50,0.00,,CLR,0.00,VWS V14.01,2013-01-23 12:53:00,
2013-01-23 06:58:00,13.3,-1.9,29.06,SSE,160,0.0,0.0,50,0.00,,CLR,0.00,VWS V14.01,2013-01-23 12:58:00,
2013-01-23 07:03:00,13.3,-1.9,29.06,SSE,167,0.0,0.0,50,0.00,,CLR,0.00,VWS V14.01,2013-01-23 13:03:00,
2013-01-23 07:08:00,13.5,-1.7,29.06,South,173,0.0,0.0,50,0.00,,CLR,0.00,VWS V14.01,2013-01-23 13:08:00,
2013-01-23 07:13:00,13.5,-1.7,29.06,South,175,0.0,0.0,50,0.00,,CLR,0.00,VWS V14.01,2013-01-23 13:13:00,
2013-01-23 07:19:00,13.5,-1.7,29.06,South,180,0.0,0.0,50,0.00,,CLR,0.00,VWS V14.01,2013-01-23 13:19:00,
2013-01-23 07:24:00,13.6,-1.5,29.06,South,174,0.0,0.0,50,0.00,,CLR,0.00,VWS V14.01,2013-01-23 13:24:00,
2013-01-23 07:29:00,13.5,-1.7,29.06,South,174,0.0,0.0,50,0.00,,CLR,0.00,VWS V14.01,2013-01-23 13:29:00,
2013-01-23 07:34:00,13.5,-1.7,29.06,South,175,0.0,0.0,50,0.00,,CLR,0.00,VWS V14.01,2013-01-23 13:34:00,
2013-01-23 07:39:00,13.6,-1.5,29.06,South,180,0.0,0.0,50,0.00,,CLR,0.00,VWS V14.01,2013-01-23 13:39:00,
2013-01-23 07:44:00,13.6,-1.5,29.06,South,176,0.0,0.0,50,0.00,,CLR,0.00,VWS V14.01,2013-01-23 13:44:00,
2013-01-23 07:49:00,13.6,-1.5,29.06,South,176,0.0,0.0,50,0.00,,CLR,0.00,VWS V14.01,2013-01-23 13:49:00,
2013-01-23 07:54:00,13.6,-1.5,29.06,South,170,0.0,0.0,50,0.00,,CLR,0.00,VWS V14.01,2013-01-23 13:54:00,
2013-01-23 07:59:00,13.6,-1.5,29.06,South,170,0.0,0.0,50,0.00,,CLR,0.00,VWS V14.01,2013-01-23 13:59:00,
2013-01-23 08:04:00,13.8,-1.4,29.06,South,175,0.0,0.0,50,0.00,,BKN250,0.00,VWS V14.01,2013-01-23 14:04:00,
2013-01-23 08:09:00,14.4,2.7,29.06,SSW,199,0.0,0.0,59,0.00,,BKN250,0.00,VWS V14.01,2013-01-23 14:09:00,
2013-01-23 08:14:00,14.5,2.8,29.06,SSW,195,0.0,0.0,59,0.00,,BKN250,0.00,VWS V14.01,2013-01-23 14:14:00,
2013-01-23 08:19:00,14.9,3.2,29.06,SSW,202,0.0,0.0,59,0.00,,BKN250,0.00,VWS V14.01,2013-01-23 14:19:00,
2013-01-23 08:24:00,15.1,3.3,29.06,SSW,200,0.0,0.0,59,0.00,,BKN250,0.00,VWS V14.01,2013-01-23 14:24:00,
2013-01-23 08:29:00,15.3,3.9,29.09,South,183,0.0,0.0,60,0.00,,BKN250,0.00,VWS V14.01,2013-01-23 14:29:00,
2013-01-23 08:34:00,15.4,4.1,29.09,SSW,200,0.0,0.0,60,0.00,,BKN250,0.00,VWS V14.01,2013-01-23 14:34:00,
2013-01-23 08:39:00,15.4,4.1,29.09,SSW,201,0.0,0.0,60,0.00,,BKN250,0.00,VWS V14.01,2013-01-23 14:39:00,
2013-01-23 08:44:00,15.8,4.4,29.09,SSW,200,4.9,8.1,60,0.00,,BKN250,0.00,VWS V14.01,2013-01-23 14:44:00,
2013-01-23 08:49:00,16.0,4.6,29.09,SW,220,0.0,2.7,60,0.00,,BKN250,0.00,VWS V14.01,2013-01-23 14:49:00,
2013-01-23 08:54:00,16.5,5.1,29.09,SW,214,2.2,2.7,60,0.00,,BKN250,0.00,VWS V14.01,2013-01-23 14:54:00,
2013-01-23 08:59:00,16.9,5.4,29.09,SSW,212,4.0,4.0,60,0.00,,BKN250,0.00,VWS V14.01,2013-01-23 14:59:00,
2013-01-23 09:04:00,17.4,5.9,29.09,SW,231,3.6,6.3,60,0.00,,BKN250,0.00,VWS V14.01,2013-01-23 15:04:00,
2013-01-23 09:10:00,17.6,6.1,29.09,SSW,204,3.6,7.6,60,0.00,,BKN250,0.00,VWS V14.01,2013-01-23 15:10:00,
2013-01-23 09:15:00,18.1,6.2,29.09,South,191,4.0,4.9,59,0.00,,BKN250,0.00,VWS V14.01,2013-01-23 15:15:00,
2013-01-23 09:20:00,18.5,6.6,29.09,SW,218,3.1,3.1,59,0.00,,BKN250,0.00,VWS V14.01,2013-01-23 15:20:00,
2013-01-23 09:25:00,18.7,6.7,29.09,SW,235,4.0,4.0,59,0.00,,BKN250,0.00,VWS V14.01,2013-01-23 15:25:00,
2013-01-23 09:30:00,19.0,7.1,29.09,WSW,238,0.0,5.4,59,0.00,,BKN250,0.00,VWS V14.01,2013-01-23 15:30:00,
2013-01-23 09:35:00,19.2,7.2,29.09,SW,231,4.0,4.0,59,0.00,,BKN250,0.00,VWS V14.01,2013-01-23 15:35:00,
2013-01-23 09:40:00,19.6,7.2,29.09,SW,219,0.0,0.0,58,0.00,,BKN250,0.00,VWS V14.01,2013-01-23 15:40:00,
2013-01-23 09:45:00,19.9,7.6,29.09,SW,216,0.0,0.0,58,0.00,,BKN250,0.00,VWS V14.01,2013-01-23 15:45:00,
2013-01-23 09:50:00,20.3,7.9,29.09,SW,235,6.3,6.3,58,0.00,,BKN250,0.00,VWS V14.01,2013-01-23 15:50:00,
2013-01-23 09:55:00,20.7,8.2,29.09,SW,233,3.1,4.9,58,0.00,,BKN250,0.00,VWS V14.01,2013-01-23 15:55:00,
2013-01-23 10:00:00,21.0,8.6,29.09,SSW,198,8.1,10.1,58,0.00,,BKN250,0.00,VWS V14.01,2013-01-23 16:00:00,
2013-01-23 10:05:00,21.4,8.5,29.09,SW,222,4.0,4.0,57,0.00,,BKN250,0.00,VWS V14.01,2013-01-23 16:05:00,
2013-01-23 10:10:00,21.9,9.0,29.09,WSW,251,8.3,8.3,57,0.00,,BKN250,0.00,VWS V14.01,2013-01-23 16:10:00,
2013-01-23 10:15:00,22.1,8.8,29.09,WSW,249,8.1,11.0,56,0.00,,BKN250,0.00,VWS V14.01,2013-01-23 16:15:00,
2013-01-23 10:20:00,22.3,9.0,29.09,WSW,258,2.7,8.7,56,0.00,,BKN250,0.00,VWS V14.01,2013-01-23 16:20:00,
2013-01-23 10:25:00,22.6,9.3,29.09,West,267,8.3,8.3,56,0.00,,BKN250,0.00,VWS V14.01,2013-01-23 16:25:00,
2013-01-23 10:30:00,22.8,9.5,29.09,West,261,10.5,10.5,56,0.00,,BKN250,0.00,VWS V14.01,2013-01-23 16:30:00,
2013-01-23 10:35:00,23.0,9.2,29.09,WNW,290,8.1,8.1,55,0.00,,BKN250,0.00,VWS V14.01,2013-01-23 16:35:00,
2013-01-23 10:41:00,23.0,9.2,29.09,West,273,8.7,8.7,55,0.00,,BKN250,0.00,VWS V14.01,2013-01-23 16:41:00,
2013-01-23 10:46:00,23.4,9.2,29.12,WSW,255,4.0,5.8,54,0.00,,BKN250,0.00,VWS V14.01,2013-01-23 16:46:00,
2013-01-23 10:51:00,23.5,9.4,29.12,WSW,244,5.8,8.3,54,0.00,,BKN250,0.00,VWS V14.01,2013-01-23 16:51:00,
2013-01-23 10:56:00,23.7,9.5,29.12,SW,235,4.5,8.3,54,0.00,,BKN250,0.00,VWS V14.01,2013-01-23 16:56:00,
2013-01-23 11:01:00,23.9,9.7,29.09,West,272,3.1,5.4,54,0.00,,BKN250,0.00,VWS V14.01,2013-01-23 17:01:00,
2013-01-23 11:06:00,24.1,9.9,29.09,WNW,294,5.4,6.3,54,0.00,,BKN250,0.00,VWS V14.01,2013-01-23 17:06:00,
2013-01-23 11:11:00,24.1,9.9,29.09,West,278,8.7,8.7,54,0.00,,BKN250,0.00,VWS V14.01,2013-01-23 17:11:00,
2013-01-23 11:16:00,24.3,10.0,29.12,WNW,284,4.0,4.0,54,0.00,,BKN250,0.00,VWS V14.01,2013-01-23 17:16:00,
2013-01-23 11:21:00,24.4,10.2,29.12,West,273,8.3,8.3,54,0.00,,BKN250,0.00,VWS V14.01,2013-01-23 17:21:00,
2013-01-23 11:26:00,24.4,10.2,29.12,WNW,287,8.3,8.3,54,0.00,,BKN250,0.00,VWS V14.01,2013-01-23 17:26:00,
2013-01-23 11:31:00,24.6,10.4,29.12,West,273,7.6,7.6,54,0.00,,BKN250,0.00,VWS V14.01,2013-01-23 17:31:00,
2013-01-23 11:36:00,24.8,10.5,29.12,West,273,8.1,8.3,54,0.00,,BKN250,0.00,VWS V14.01,2013-01-23 17:36:00,
2013-01-23 11:41:00,25.0,10.7,29.12,West,259,4.9,4.9,54,0.00,,BKN250,0.00,VWS V14.01,2013-01-23 17:41:00,
2013-01-23 11:46:00,25.2,10.9,29.12,West,281,5.4,5.4,54,0.00,,BKN250,0.00,VWS V14.01,2013-01-23 17:46:00,
2013-01-23 11:51:00,25.3,11.0,29.12,WNW,283,8.1,8.1,54,0.00,,BKN250,0.00,VWS V14.01,2013-01-23 17:51:00,
2013-01-23 11:56:00,25.3,11.0,29.12,SW,236,9.6,9.6,54,0.00,,BKN250,0.00,VWS V14.01,2013-01-23 17:56:00,
2013-01-23 12:02:00,25.7,11.4,29.09,West,275,3.6,8.1,54,0.00,,BKN250,0.00,VWS V14.01,2013-01-23 18:02:00,
2013-01-23 12:07:00,25.9,11.5,29.09,NNW,337,0.0,8.3,54,0.00,,BKN250,0.00,VWS V14.01,2013-01-23 18:07:00,
2013-01-23 12:12:00,25.9,11.1,29.09,SSW,211,2.2,8.1,53,0.00,,BKN250,0.00,VWS V14.01,2013-01-23 18:12:00,
2013-01-23 12:17:00,26.1,11.3,29.09,WNW,302,2.7,7.6,53,0.00,,BKN250,0.00,VWS V14.01,2013-01-23 18:17:00,
2013-01-23 12:22:00,26.1,11.3,29.09,West,274,5.8,5.8,53,0.00,,BKN250,0.00,VWS V14.01,2013-01-23 18:22:00,
2013-01-23 12:27:00,26.1,11.3,29.09,WNW,299,0.0,4.9,53,0.00,,BKN250,0.00,VWS V14.01,2013-01-23 18:27:00,
2013-01-23 12:32:00,26.2,11.4,29.09,NW,319,8.3,8.3,53,0.00,,BKN250,0.00,VWS V14.01,2013-01-23 18:32:00,
2013-01-23 12:37:00,26.2,11.0,29.09,West,260,8.1,10.1,52,0.00,,BKN250,0.00,VWS V14.01,2013-01-23 18:37:00,
2013-01-23 12:42:00,26.4,11.2,29.09,West,275,3.6,8.3,52,0.00,,BKN250,0.00,VWS V14.01,2013-01-23 18:42:00,
2013-01-23 12:47:00,26.8,11.5,29.12,WNW,303,8.1,8.3,52,0.00,,BKN250,0.00,VWS V14.01,2013-01-23 18:47:00,
2013-01-23 12:52:00,26.8,11.5,29.12,West,261,7.6,8.7,52,0.00,,BKN250,0.00,VWS V14.01,2013-01-23 18:52:00,
2013-01-23 12:57:00,26.8,11.5,29.12,NW,305,8.1,8.1,52,0.00,,BKN250,0.00,VWS V14.01,2013-01-23 18:57:00,
2013-01-23 13:02:00,26.4,11.2,29.12,NW,313,8.1,11.4,52,0.00,,BKN250,0.00,VWS V14.01,2013-01-23 19:02:00,
2013-01-23 13:07:00,26.6,11.8,29.12,WNW,302,2.7,8.7,53,0.00,,BKN250,0.00,VWS V14.01,2013-01-23 19:07:00,
2013-01-23 13:12:00,26.8,11.5,29.12,West,271,5.4,8.3,52,0.00,,BKN250,0.00,VWS V14.01,2013-01-23 19:12:00,
2013-01-23 13:17:00,26.6,11.4,29.12,West,263,3.1,8.1,52,0.00,,BKN250,0.00,VWS V14.01,2013-01-23 19:17:00,
2013-01-23 13:22:00,26.6,11.8,29.12,NW,314,7.2,7.2,53,0.00,,BKN250,0.00,VWS V14.01,2013-01-23 19:22:00,
2013-01-23 13:28:00,26.6,11.8,29.09,NW,318,7.2,10.1,53,0.00,,BKN250,0.00,VWS V14.01,2013-01-23 19:28:00,
2013-01-23 13:33:00,26.4,11.6,29.09,NW,320,11.0,11.0,53,0.00,,BKN250,0.00,VWS V14.01,2013-01-23 19:33:00,
2013-01-23 13:38:00,26.4,11.6,29.09,WNW,299,3.6,8.7,53,0.00,,BKN250,0.00,VWS V14.01,2013-01-23 19:38:00,
2013-01-23 13:43:00,26.4,11.6,29.09,West,277,6.7,6.7,53,0.00,,BKN250,0.00,VWS V14.01,2013-01-23 19:43:00,
2013-01-23 13:48:00,26.6,12.2,29.09,West,259,8.3,8.3,54,0.00,,BKN250,0.00,VWS V14.01,2013-01-23 19:48:00,
2013-01-23 13:53:00,26.6,12.2,29.09,WNW,285,4.0,7.6,54,0.00,,BKN250,0.00,VWS V14.01,2013-01-23 19:53:00,
2013-01-23 13:58:00,27.0,12.1,29.09,West,263,8.1,11.0,53,0.00,,BKN250,0.00,VWS V14.01,2013-01-23 19:58:00,
2013-01-23 14:03:00,27.0,12.1,29.09,West,281,8.3,12.3,53,0.00,,OVC250,0.00,VWS V14.01,2013-01-23 20:03:00,
2013-01-23 14:08:00,26.8,12.0,29.09,West,280,8.7,8.7,53,0.00,,OVC250,0.00,VWS V14.01,2013-01-23 20:08:00,
2013-01-23 14:13:00,26.8,12.0,29.12,WNW,289,13.2,13.2,53,0.00,,OVC250,0.00,VWS V14.01,2013-01-23 20:13:00,
2013-01-23 14:18:00,26.8,12.0,29.12,WNW,285,5.4,10.5,53,0.00,,OVC250,0.00,VWS V14.01,2013-01-23 20:18:00,
2013-01-23 14:23:00,27.0,11.7,29.12,West,269,4.0,5.8,52,0.00,,OVC250,0.00,VWS V14.01,2013-01-23 20:23:00,
2013-01-23 14:28:00,27.0,12.1,29.12,West,270,4.0,4.0,53,0.00,,OVC250,0.00,VWS V14.01,2013-01-23 20:28:00,
2013-01-23 14:33:00,27.1,12.3,29.12,West,281,10.1,12.3,53,0.00,,OVC250,0.00,VWS V14.01,2013-01-23 20:33:00,
2013-01-23 14:38:00,27.1,11.9,29.12,West,275,15.0,17.4,52,0.00,,OVC250,0.00,VWS V14.01,2013-01-23 20:38:00,
2013-01-23 14:43:00,27.3,12.0,29.12,WNW,285,3.1,11.0,52,0.00,,OVC250,0.00,VWS V14.01,2013-01-23 20:43:00,
2013-01-23 14:48:00,27.1,11.9,29.12,WSW,257,8.1,8.1,52,0.00,,OVC250,0.00,VWS V14.01,2013-01-23 20:48:00,
2013-01-23 14:53:00,27.3,12.0,29.12,NW,312,6.3,8.1,52,0.00,,OVC250,0.00,VWS V14.01,2013-01-23 20:53:00,
2013-01-23 14:58:00,27.3,12.0,29.12,NW,316,7.2,8.3,52,0.00,,OVC250,0.00,VWS V14.01,2013-01-23 20:58:00,
2013-01-23 15:03:00,27.1,11.4,29.12,WSW,252,5.8,7.6,51,0.00,,OVC250,0.00,VWS V14.01,2013-01-23 21:03:00,
2013-01-23 15:08:00,27.1,11.4,29.12,WSW,245,10.5,10.5,51,0.00,,OVC250,0.00,VWS V14.01,2013-01-23 21:08:00,
2013-01-23 15:13:00,27.0,11.3,29.15,WNW,289,8.1,8.1,51,0.00,,OVC250,0.00,VWS V14.01,2013-01-23 21:13:00,
2013-01-23 15:18:00,27.0,11.7,29.15,West,280,4.0,8.3,52,0.00,,OVC250,0.00,VWS V14.01,2013-01-23 21:18:00,
2013-01-23 15:23:00,27.0,11.3,29.15,NW,311,7.6,8.3,51,0.00,,OVC250,0.00,VWS V14.01,2013-01-23 21:23:00,
2013-01-23 15:28:00,26.8,11.5,29.15,WNW,296,0.0,3.1,52,0.00,,OVC250,0.00,VWS V14.01,2013-01-23 21:28:00,
2013-01-23 15:33:00,27.0,11.7,29.15,NW,309,8.3,8.3,52,0.00,,OVC250,0.00,VWS V14.01,2013-01-23 21:33:00,
2013-01-23 15:38:00,26.8,11.5,29.15,NNW,346,6.3,7.6,52,0.00,,OVC250,0.00,VWS V14.01,2013-01-23 21:38:00,
2013-01-23 15:44:00,26.8,11.1,29.15,NW,312,5.8,10.1,51,0.00,,OVC250,0.00,VWS V14.01,2013-01-23 21:44:00,
2013-01-23 15:49:00,26.6,11.4,29.15,NW,308,5.4,8.3,52,0.00,,OVC250,0.00,VWS V14.01,2013-01-23 21:49:00,
2013-01-23 15:54:00,26.6,11.4,29.15,WNW,294,8.1,8.7,52,0.00,,OVC250,0.00,VWS V14.01,2013-01-23 21:54:00,
2013-01-23 15:59:00,26.4,11.2,29.15,WNW,300,4.0,4.0,52,0.00,,OVC250,0.00,VWS V14.01,2013-01-23 21:59:00,
2013-01-23 16:04:00,26.2,11.0,29.15,West,276,5.4,8.3,52,0.00,,OVC250,0.00,VWS V14.01,2013-01-23 22:04:00,
2013-01-23 16:09:00,26.1,10.9,29.15,NW,308,7.6,8.7,52,0.00,,OVC250,0.00,VWS V14.01,2013-01-23 22:09:00,
2013-01-23 16:14:00,26.1,10.9,29.15,NW,322,7.6,7.6,52,0.00,,OVC250,0.00,VWS V14.01,2013-01-23 22:14:00,
2013-01-23 16:19:00,25.9,10.7,29.15,WNW,297,6.3,6.3,52,0.00,,OVC250,0.00,VWS V14.01,2013-01-23 22:19:00,
2013-01-23 16:24:00,25.9,10.7,29.15,NW,309,6.3,7.2,52,0.00,,OVC250,0.00,VWS V14.01,2013-01-23 22:24:00,
2013-01-23 16:29:00,25.9,10.7,29.18,NW,315,5.8,5.8,52,0.00,,OVC250,0.00,VWS V14.01,2013-01-23 22:29:00,
2013-01-23 16:34:00,25.9,10.7,29.18,NNW,328,7.6,10.1,52,0.00,,OVC250,0.00,VWS V14.01,2013-01-23 22:34:00,
2013-01-23 16:39:00,25.7,10.5,29.18,NW,315,8.3,8.3,52,0.00,,OVC250,0.00,VWS V14.01,2013-01-23 22:39:00,
2013-01-23 16:44:00,25.3,10.2,29.18,NW,307,0.0,4.0,52,0.00,,OVC250,0.00,VWS V14.01,2013-01-23 22:44:00,
2013-01-23 16:49:00,25.3,10.2,29.18,NW,321,6.3,6.3,52,0.00,,OVC250,0.00,VWS V14.01,2013-01-23 22:49:00,
2013-01-23 16:54:00,25.2,10.0,29.18,NW,326,5.4,8.1,52,0.00,,OVC250,0.00,VWS V14.01,2013-01-23 22:54:00,
2013-01-23 16:59:00,25.0,9.9,29.18,NW,308,8.1,9.6,52,0.00,,OVC250,0.00,VWS V14.01,2013-01-23 22:59:00,
2013-01-23 17:04:00,24.6,9.9,29.18,NNW,327,6.3,7.6,53,0.00,,OVC250,0.00,VWS V14.01,2013-01-23 23:04:00,
2013-01-23 17:09:00,24.4,9.8,29.18,West,279,0.0,3.1,53,0.00,,OVC250,0.00,VWS V14.01,2013-01-23 23:09:00,
2013-01-23 17:15:00,24.4,9.4,29.21,West,263,10.1,10.1,52,0.00,,OVC250,0.00,VWS V14.01,2013-01-23 23:15:00,
2013-01-23 17:20:00,24.3,9.2,29.21,WNW,297,9.6,9.6,52,0.00,,OVC250,0.00,VWS V14.01,2013-01-23 23:20:00,
2013-01-23 17:25:00,23.9,8.9,29.21,NW,310,0.0,2.7,52,0.00,,OVC250,0.00,VWS V14.01,2013-01-23 23:25:00,
2013-01-23 17:30:00,23.7,8.7,29.21,WNW,299,5.8,7.2,52,0.00,,OVC250,0.00,VWS V14.01,2013-01-23 23:30:00,
2013-01-23 17:35:00,23.5,8.5,29.21,WNW,295,6.7,12.8,52,0.00,,OVC250,0.00,VWS V14.01,2013-01-23 23:35:00,
2013-01-23 17:40:00,23.2,8.2,29.21,WNW,292,12.3,12.3,52,0.00,,OVC250,0.00,VWS V14.01,2013-01-23 23:40:00,
2013-01-23 17:45:00,23.0,8.0,29.21,WNW,302,6.3,6.3,52,0.00,,OVC250,0.00,VWS V14.01,2013-01-23 23:45:00,
2013-01-23 17:50:00,22.8,7.8,29.21,NW,306,6.3,6.3,52,0.00,,OVC250,0.00,VWS V14.01,2013-01-23 23:50:00,
2013-01-23 17:55:00,22.6,7.2,29.21,WNW,289,10.1,10.1,51,0.00,,OVC250,0.00,VWS V14.01,2013-01-23 23:55:00,
2013-01-23 18:00:00,22.5,7.1,29.21,West,279,3.6,4.5,51,0.00,,OVC250,0.00,VWS V14.01,2013-01-24 00:00:00,
2013-01-23 18:05:00,22.3,6.9,29.21,NW,312,8.1,8.1,51,0.00,,BKN300,0.00,VWS V14.01,2013-01-24 00:05:00,
2013-01-23 18:10:00,22.1,6.8,29.21,West,278,2.7,10.1,51,0.00,,BKN300,0.00,VWS V14.01,2013-01-24 00:10:00,
2013-01-23 18:15:00,21.9,6.6,29.23,WNW,303,7.6,8.7,51,0.00,,BKN300,0.00,VWS V14.01,2013-01-24 00:15:00,
2013-01-23 18:20:00,21.6,5.8,29.23,WNW,288,0.0,7.2,50,0.00,,BKN300,0.00,VWS V14.01,2013-01-24 00:20:00,
2013-01-23 18:25:00,21.4,5.6,29.23,West,275,5.8,8.7,50,0.00,,BKN300,0.00,VWS V14.01,2013-01-24 00:25:00,
2013-01-23 18:30:00,21.2,5.9,29.23,WNW,290,4.0,4.0,51,0.00,,BKN300,0.00,VWS V14.01,2013-01-24 00:30:00,
2013-01-23 18:35:00,21.0,5.3,29.23,WNW,295,7.2,7.6,50,0.00,,BKN300,0.00,VWS V14.01,2013-01-24 00:35:00,
2013-01-23 18:41:00,20.8,4.7,29.23,NW,310,9.6,12.3,49,0.00,,BKN300,0.00,VWS V14.01,2013-01-24 00:41:00,
2013-01-23 18:46:00,20.5,3.9,29.26,NW,317,8.1,8.7,48,0.00,,BKN300,0.00,VWS V14.01,2013-01-24 00:46:00,
2013-01-23 18:51:00,20.5,3.5,29.26,WNW,291,0.0,0.0,47,0.00,,BKN300,0.00,VWS V14.01,2013-01-24 00:51:00,
2013-01-23 18:56:00,20.3,3.3,29.26,NW,317,5.4,6.3,47,0.00,,BKN300,0.00,VWS V14.01,2013-01-24 00:56:00,
2013-01-23 19:01:00,20.1,3.1,29.26,WNW,289,5.4,5.8,47,0.00,,BKN300,0.00,VWS V14.01,2013-01-24 01:01:00,
2013-01-23 19:06:00,19.9,3.0,29.26,WNW,289,2.2,2.2,47,0.00,,BKN300,0.00,VWS V14.01,2013-01-24 01:06:00,
2013-01-23 19:11:00,19.6,2.2,29.26,West,280,12.3,12.3,46,0.00,,BKN300,0.00,VWS V14.01,2013-01-24 01:11:00,
2013-01-23 19:16:00,19.2,2.3,29.26,WNW,284,2.2,2.2,47,0.00,,BKN300,0.00,VWS V14.01,2013-01-24 01:16:00,
2013-01-23 19:21:00,19.0,2.1,29.26,WNW,298,9.6,9.6,47,0.00,,BKN300,0.00,VWS V14.01,2013-01-24 01:21:00,
2013-01-23 19:26:00,18.5,1.2,29.26,WNW,287,8.1,8.1,46,0.00,,BKN300,0.00,VWS V14.01,2013-01-24 01:26:00,
2013-01-23 19:31:00,18.3,1.0,29.29,WNW,296,5.8,7.6,46,0.00,,BKN300,0.00,VWS V14.01,2013-01-24 01:31:00,
2013-01-23 19:36:00,18.1,0.9,29.29,West,280,8.1,8.1,46,0.00,,BKN300,0.00,VWS V14.01,2013-01-24 01:36:00,
2013-01-23 19:41:00,17.8,0.5,29.29,WNW,285,5.8,10.5,46,0.00,,BKN300,0.00,VWS V14.01,2013-01-24 01:41:00,
2013-01-23 19:46:00,17.6,0.8,29.29,WNW,301,8.3,10.1,47,0.00,,BKN300,0.00,VWS V14.01,2013-01-24 01:46:00,
2013-01-23 19:51:00,17.2,0.5,29.29,NW,312,3.6,10.1,47,0.00,,BKN300,0.00,VWS V14.01,2013-01-24 01:51:00,
2013-01-23 19:56:00,16.9,-0.3,29.29,NNW,337,8.3,8.3,46,0.00,,BKN300,0.00,VWS V14.01,2013-01-24 01:56:00,
2013-01-23 20:02:00,16.5,-0.6,29.29,WNW,291,8.1,11.0,46,0.00,,CLR,0.00,VWS V14.01,2013-01-24 02:02:00,
2013-01-23 20:07:00,16.2,-1.0,29.29,NW,311,8.3,8.7,46,0.00,,CLR,0.00,VWS V14.01,2013-01-24 02:07:00,
2013-01-23 20:12:00,16.0,-1.1,29.29,NW,307,10.1,10.1,46,0.00,,CLR,0.00,VWS V14.01,2013-01-24 02:12:00,
2013-01-23 20:17:00,15.4,-1.6,29.29,NW,316,6.7,8.7,46,0.00,,CLR,0.00,VWS V14.01,2013-01-24 02:17:00,
2013-01-23 20:22:00,15.3,-1.8,29.29,WNW,289,4.0,10.5,46,0.00,,CLR,0.00,VWS V14.01,2013-01-24 02:22:00,
2013-01-23 20:27:00,14.9,-2.1,29.29,NNW,328,7.6,10.1,46,0.00,,CLR,0.00,VWS V14.01,2013-01-24 02:27:00,
2013-01-23 20:32:00,14.7,-2.3,29.29,WNW,288,5.8,7.6,46,0.00,,CLR,0.00,VWS V14.01,2013-01-24 02:32:00,
2013-01-23 20:37:00,14.4,-2.6,29.29,West,276,6.3,6.3,46,0.00,,CLR,0.00,VWS V14.01,2013-01-24 02:37:00,
2013-01-23 20:42:00,13.8,-3.1,29.29,WNW,299,3.1,6.3,46,0.00,,CLR,0.00,VWS V14.01,2013-01-24 02:42:00,
2013-01-23 20:47:00,13.8,-3.1,29.32,NW,322,3.6,5.4,46,0.00,,CLR,0.00,VWS V14.01,2013-01-24 02:47:00,
2013-01-23 20:52:00,13.6,-3.3,29.32,WNW,300,8.7,10.1,46,0.00,,CLR,0.00,VWS V14.01,2013-01-24 02:52:00,
2013-01-23 20:57:00,13.5,-3.5,29.32,WNW,297,7.6,8.3,46,0.00,,CLR,0.00,VWS V14.01,2013-01-24 02:57:00,
2013-01-23 21:02:00,12.9,-4.0,29.32,NW,317,7.6,7.6,46,0.00,,CLR,0.00,VWS V14.01,2013-01-24 03:02:00,
2013-01-23 21:07:00,12.7,-4.1,29.32,NW,322,6.3,8.7,46,0.00,,CLR,0.00,VWS V14.01,2013-01-24 03:07:00,
2013-01-23 21:12:00,12.6,-4.3,29.32,NW,316,4.5,9.2,46,0.00,,CLR,0.00,VWS V14.01,2013-01-24 03:12:00,
2013-01-23 21:17:00,12.4,-4.4,29.32,NNW,341,8.3,8.3,46,0.00,,CLR,0.00,VWS V14.01,2013-01-24 03:17:00,
2013-01-23 21:22:00,11.8,-4.9,29.32,NW,314,3.6,7.2,46,0.00,,CLR,0.00,VWS V14.01,2013-01-24 03:22:00,
2013-01-23 21:27:00,11.7,-5.1,29.32,NNW,328,4.0,5.8,46,0.00,,CLR,0.00,VWS V14.01,2013-01-24 03:27:00,
2013-01-23 21:32:00,11.3,-5.4,29.35,NW,326,2.7,7.6,46,0.00,,CLR,0.00,VWS V14.01,2013-01-24 03:32:00,
2013-01-23 21:37:00,11.1,-5.6,29.35,NW,311,0.0,10.5,46,0.00,,CLR,0.00,VWS V14.01,2013-01-24 03:37:00,
2013-01-23 21:42:00,10.8,-5.9,29.35,North,7,10.5,10.5,46,0.00,,CLR,0.00,VWS V14.01,2013-01-24 03:42:00,
2013-01-23 21:47:00,10.2,-6.4,29.35,NW,325,10.1,11.0,46,0.00,,CLR,0.00,VWS V14.01,2013-01-24 03:47:00,
2013-01-23 21:52:00,9.7,-6.9,29.35,NW,321,10.5,11.0,46,0.00,,CLR,0.00,VWS V14.01,2013-01-24 03:52:00,
2013-01-23 21:57:00,9.3,-7.3,29.35,NW,312,8.3,11.4,46,0.00,,CLR,0.00,VWS V14.01,2013-01-24 03:57:00,
2013-01-23 22:02:00,9.1,-7.4,29.35,NW,315,6.3,12.3,46,0.00,,SCT250,0.00,VWS V14.01,2013-01-24 04:02:00,
2013-01-23 22:07:00,8.8,-7.8,29.35,NW,320,6.3,12.3,46,0.00,,SCT250,0.00,VWS V14.01,2013-01-24 04:07:00,
2013-01-23 22:12:00,8.8,-7.8,29.35,NW,320,10.1,10.5,46,0.00,,SCT250,0.00,VWS V14.01,2013-01-24 04:12:00,
2013-01-23 22:17:00,8.8,-7.8,29.35,WNW,302,2.2,3.6,46,0.00,,SCT250,0.00,VWS V14.01,2013-01-24 04:17:00,
2013-01-23 22:22:00,8.6,-7.9,29.35,North,0,3.1,5.8,46,0.00,,SCT250,0.00,VWS V14.01,2013-01-24 04:22:00,
2013-01-23 22:27:00,8.4,-8.1,29.35,NW,317,5.4,8.7,46,0.00,,SCT250,0.00,VWS V14.01,2013-01-24 04:27:00,
2013-01-23 22:32:00,8.2,-8.3,29.35,NNE,14,6.3,7.6,46,0.00,,SCT250,0.00,VWS V14.01,2013-01-24 04:32:00,
2013-01-23 22:37:00,8.2,-8.3,29.35,NNW,334,3.1,3.6,46,0.00,,SCT250,0.00,VWS V14.01,2013-01-24 04:37:00,
2013-01-23 22:42:00,8.1,-8.4,29.35,NW,307,4.0,7.6,46,0.00,,SCT250,0.00,VWS V14.01,2013-01-24 04:42:00,
2013-01-23 22:47:00,8.1,-8.4,29.38,NNW,329,6.3,6.3,46,0.00,,SCT250,0.00,VWS V14.01,2013-01-24 04:47:00,
2013-01-23 22:52:00,8.1,-8.4,29.38,NNW,331,7.2,8.1,46,0.00,,SCT250,0.00,VWS V14.01,2013-01-24 04:52:00,
2013-01-23 22:57:00,7.9,-8.6,29.38,NW,305,0.0,5.8,46,0.00,,SCT250,0.00,VWS V14.01,2013-01-24 04:57:00,
2013-01-23 23:00:00,7.9,-8.6,29.38,NW,325,4.9,8.3,46,0.00,,SCT250,0.00,VWS V14.01,2013-01-24 05:00:00,
2013-01-23 23:02:00,7.9,-8.6,29.38,West,279,4.9,4.9,46,0.00,,SCT250,0.00,VWS V14.01,2013-01-24 05:02:00,
2013-01-23 23:03:00,7.9,-8.6,29.38,NNW,328,4.9,7.2,46,0.00,,SCT250,0.00,VWS V14.01,2013-01-24 05:03:00,
2013-01-23 23:08:00,7.9,-8.6,29.38,NNW,327,3.6,7.6,46,0.00,,SCT250,0.00,VWS V14.01,2013-01-24 05:08:00,
2013-01-23 23:13:00,7.7,-8.8,29.38,WNW,286,5.4,5.4,46,0.00,,SCT250,0.00,VWS V14.01,2013-01-24 05:13:00,
2013-01-23 23:18:00,7.7,-8.8,29.38,NNW,329,0.0,4.0,46,0.00,,SCT250,0.00,VWS V14.01,2013-01-24 05:18:00,
2013-01-23 23:23:00,7.7,-8.8,29.38,WNW,296,5.8,8.1,46,0.00,,SCT250,0.00,VWS V14.01,2013-01-24 05:23:00,
2013-01-23 23:28:00,7.5,-8.9,29.41,NW,322,7.2,7.2,46,0.00,,SCT250,0.00,VWS V14.01,2013-01-24 05:28:00,
2013-01-23 23:33:00,7.5,-8.9,29.41,North,5,0.0,0.0,46,0.00,,SCT250,0.00,VWS V14.01,2013-01-24 05:33:00,
2013-01-23 23:38:00,7.5,-8.9,29.41,NW,308,2.2,6.3,46,0.00,,SCT250,0.00,VWS V14.01,2013-01-24 05:38:00,
2013-01-23 23:43:00,7.5,-8.9,29.41,NNW,331,0.0,3.6,46,0.00,,SCT250,0.00,VWS V14.01,2013-01-24 05:43:00,
2013-01-23 23:48:00,7.5,-8.9,29.41,NNW,337,7.6,7.6,46,0.00,,SCT250,0.00,VWS V14.01,2013-01-24 05:48:00,
2013-01-23 23:53:00,7.2,-9.3,29.41,NW,322,0.0,5.8,46,0.00,,SCT250,0.00,VWS V14.01,2013-01-24 05:53:00,
2013-01-23 23:58:00,7.0,-9.4,29.41,North,357,0.0,5.4,46,0.00,,SCT250,0.00,VWS V14.01,2013-01-24 05:58:00,